Granite Downs, Australia
Current Conditions -  °F | °C
As of 8:00 PM on Saturday 22 Nov 2014 (Local Time) from YCBP Reporting Station
Clear Clear  
Wind Chill: 100°   Ceiling: Unl
Heat Index: 100°   Visibility: NA
Dew Point: 43°   Wind: 15mph
Humidity: 14%   Direction: 180°S
Pressure: 29.68"   Gusts: NA
Location:  26.94°S, 133.49°E
Report Text: YCBP 221000Z AUTO 18013KT //// // NCD 38/06 Q1005
Loading
Personal Weather Stations






























Interactive Weather Map New forecast layout! Learn more

10-Day Weather Forecast

Advertisements
Track Severe Weather on mobile